sensor_id;sensor_type;location;lat;lon;timestamp;temperature;humidity
22288;DHT22;11312;51.464;6.968;2023-02-01T00:00:20;5.50;99.90
22288;DHT22;11312;51.464;6.968;2023-02-01T00:02:46;5.40;99.90
22288;DHT22;11312;51.464;6.968;2023-02-01T00:05:11;5.40;99.90
22288;DHT22;11312;51.464;6.968;2023-02-01T00:07:37;5.40;99.90
22288;DHT22;11312;51.464;6.968;2023-02-01T00:10:05;5.40;99.90
22288;DHT22;11312;51.464;6.968;2023-02-01T00:12:31;5.50;99.90
22288;DHT22;11312;51.464;6.968;2023-02-01T00:14:56;5.60;99.90
22288;DHT22;11312;51.464;6.968;2023-02-01T00:17:22;5.70;99.90
22288;DHT22;11312;51.464;6.968;2023-02-01T00:19:48;5.70;99.90
22288;DHT22;11312;51.464;6.968;2023-02-01T00:22:13;5.70;99.90
22288;DHT22;11312;51.464;6.968;2023-02-01T00:24:39;5.70;99.90
22288;DHT22;11312;51.464;6.968;2023-02-01T00:27:04;5.70;99.90
22288;DHT22;11312;51.464;6.968;2023-02-01T00:29:30;5.70;99.90
22288;DHT22;11312;51.464;6.968;2023-02-01T00:31:56;5.70;99.90
22288;DHT22;11312;51.464;6.968;2023-02-01T00:34:21;4.50;99.90
22288;DHT22;11312;51.464;6.968;2023-02-01T00:36:47;5.70;99.90
22288;DHT22;11312;51.464;6.968;2023-02-01T00:39:13;5.80;99.90
22288;DHT22;11312;51.464;6.968;2023-02-01T00:41:39;5.80;99.90
22288;DHT22;11312;51.464;6.968;2023-02-01T00:44:05;5.80;99.90
22288;DHT22;11312;51.464;6.968;2023-02-01T00:46:31;5.80;99.90
22288;DHT22;11312;51.464;6.968;2023-02-01T00:48:57;5.80;99.90
22288;DHT22;11312;51.464;6.968;2023-02-01T00:51:27;5.80;99.90
22288;DHT22;11312;51.464;6.968;2023-02-01T00:53:53;5.70;99.90
22288;DHT22;11312;51.464;6.968;2023-02-01T00:56:19;5.60;99.90
22288;DHT22;11312;51.464;6.968;2023-02-01T00:58:45;5.60;99.90
22288;DHT22;11312;51.464;6.968;2023-02-01T01:01:14;5.60;99.90
22288;DHT22;11312;51.464;6.968;2023-02-01T01:03:43;5.70;99.90
22288;DHT22;11312;51.464;6.968;2023-02-01T01:06:14;5.70;99.90
22288;DHT22;11312;51.464;6.968;2023-02-01T01:08:41;5.70;99.90
22288;DHT22;11312;51.464;6.968;2023-02-01T01:11:14;5.70;99.90
22288;DHT22;11312;51.464;6.968;2023-02-01T01:13:40;5.90;99.90
22288;DHT22;11312;51.464;6.968;2023-02-01T01:16:07;5.90;99.90
22288;DHT22;11312;51.464;6.968;2023-02-01T01:18:34;5.90;99.90
22288;DHT22;11312;51.464;6.968;2023-02-01T01:21:00;6.00;99.90
22288;DHT22;11312;51.464;6.968;2023-02-01T01:23:27;6.00;99.90
22288;DHT22;11312;51.464;6.968;2023-02-01T01:25:53;6.10;99.90
22288;DHT22;11312;51.464;6.968;2023-02-01T01:28:19;6.00;99.90
22288;DHT22;11312;51.464;6.968;2023-02-01T01:30:44;6.00;99.90
22288;DHT22;11312;51.464;6.968;2023-02-01T01:33:10;6.10;99.90
22288;DHT22;11312;51.464;6.968;2023-02-01T01:35:36;6.00;99.90
22288;DHT22;11312;51.464;6.968;2023-02-01T01:38:02;6.00;99.90
22288;DHT22;11312;51.464;6.968;2023-02-01T01:40:29;5.90;99.90
22288;DHT22;11312;51.464;6.968;2023-02-01T01:42:55;6.00;99.90
22288;DHT22;11312;51.464;6.968;2023-02-01T01:45:29;6.00;99.90
22288;DHT22;11312;51.464;6.968;2023-02-01T01:48:03;6.00;99.90
22288;DHT22;11312;51.464;6.968;2023-02-01T01:50:40;6.00;99.90
22288;DHT22;11312;51.464;6.968;2023-02-01T01:53:08;5.90;99.90
22288;DHT22;11312;51.464;6.968;2023-02-01T01:55:37;5.80;99.90
22288;DHT22;11312;51.464;6.968;2023-02-01T01:58:08;5.90;99.90
22288;DHT22;11312;51.464;6.968;2023-02-01T02:00:35;5.80;99.90
22288;DHT22;11312;51.464;6.968;2023-02-01T02:03:06;5.80;99.90
22288;DHT22;11312;51.464;6.968;2023-02-01T02:05:34;5.80;99.90
22288;DHT22;11312;51.464;6.968;2023-02-01T02:08:00;5.70;99.90
22288;DHT22;11312;51.464;6.968;2023-02-01T02:10:27;5.70;99.90
22288;DHT22;11312;51.464;6.968;2023-02-01T02:13:13;5.70;99.90
22288;DHT22;11312;51.464;6.968;2023-02-01T02:15:45;5.70;99.90
22288;DHT22;11312;51.464;6.968;2023-02-01T02:18:31;5.70;99.90
22288;DHT22;11312;51.464;6.968;2023-02-01T02:21:22;5.70;99.90
22288;DHT22;11312;51.464;6.968;2023-02-01T02:24:24;5.60;99.90
22288;DHT22;11312;51.464;6.968;2023-02-01T02:30:10;5.60;99.90
22288;DHT22;11312;51.464;6.968;2023-02-01T02:35:50;5.50;99.90
22288;DHT22;11312;51.464;6.968;2023-02-01T02:41:19;5.60;99.90
22288;DHT22;11312;51.464;6.968;2023-02-01T02:44:30;5.70;99.90
22288;DHT22;11312;51.464;6.968;2023-02-01T02:47:32;5.70;99.90
22288;DHT22;11312;51.464;6.968;2023-02-01T02:53:02;5.50;99.90
22288;DHT22;11312;51.464;6.968;2023-02-01T02:55:49;5.60;99.90
22288;DHT22;11312;51.464;6.968;2023-02-01T02:58:16;5.40;99.90
22288;DHT22;11312;51.464;6.968;2023-02-01T03:01:03;5.40;99.90
22288;DHT22;11312;51.464;6.968;2023-02-01T03:03:48;5.30;99.90
22288;DHT22;11312;51.464;6.968;2023-02-01T03:06:37;5.30;99.90
22288;DHT22;11312;51.464;6.968;2023-02-01T03:09:12;5.10;99.90
22288;DHT22;11312;51.464;6.968;2023-02-01T03:11:39;5.10;99.90
22288;DHT22;11312;51.464;6.968;2023-02-01T03:14:26;5.00;99.90
22288;DHT22;11312;51.464;6.968;2023-02-01T03:16:59;5.00;99.90
22288;DHT22;11312;51.464;6.968;2023-02-01T03:19:35;5.20;99.90
22288;DHT22;11312;51.464;6.968;2023-02-01T03:22:05;5.20;99.90
22288;DHT22;11312;51.464;6.968;2023-02-01T03:24:44;5.30;99.90
22288;DHT22;11312;51.464;6.968;2023-02-01T03:30:18;5.40;99.90
22288;DHT22;11312;51.464;6.968;2023-02-01T03:32:48;5.50;99.90
22288;DHT22;11312;51.464;6.968;2023-02-01T03:41:02;5.50;99.90
22288;DHT22;11312;51.464;6.968;2023-02-01T03:43:32;5.50;99.90
22288;DHT22;11312;51.464;6.968;2023-02-01T03:46:02;5.50;99.90
22288;DHT22;11312;51.464;6.968;2023-02-01T03:48:31;5.60;99.90
22288;DHT22;11312;51.464;6.968;2023-02-01T03:50:59;5.50;99.90
22288;DHT22;11312;51.464;6.968;2023-02-01T03:53:26;5.50;99.90
22288;DHT22;11312;51.464;6.968;2023-02-01T03:55:53;5.50;99.90
22288;DHT22;11312;51.464;6.968;2023-02-01T03:58:21;5.60;99.90
22288;DHT22;11312;51.464;6.968;2023-02-01T04:00:53;5.60;99.90
22288;DHT22;11312;51.464;6.968;2023-02-01T04:03:18;5.70;99.90
22288;DHT22;11312;51.464;6.968;2023-02-01T04:05:44;5.60;99.90
22288;DHT22;11312;51.464;6.968;2023-02-01T04:08:10;5.60;99.90
22288;DHT22;11312;51.464;6.968;2023-02-01T04:10:35;5.60;99.90
22288;DHT22;11312;51.464;6.968;2023-02-01T04:13:01;5.50;99.90
22288;DHT22;11312;51.464;6.968;2023-02-01T04:15:26;5.50;99.90
22288;DHT22;11312;51.464;6.968;2023-02-01T04:17:52;5.50;99.90
22288;DHT22;11312;51.464;6.968;2023-02-01T04:20:17;5.50;99.90
22288;DHT22;11312;51.464;6.968;2023-02-01T04:22:43;5.60;99.90
22288;DHT22;11312;51.464;6.968;2023-02-01T04:25:09;5.60;99.90
22288;DHT22;11312;51.464;6.968;2023-02-01T04:27:35;5.60;99.90
22288;DHT22;11312;51.464;6.968;2023-02-01T04:30:01;5.50;99.90
22288;DHT22;11312;51.464;6.968;2023-02-01T04:32:27;5.50;99.90
22288;DHT22;11312;51.464;6.968;2023-02-01T04:34:52;5.50;99.90
22288;DHT22;11312;51.464;6.968;2023-02-01T04:37:18;5.50;99.90
22288;DHT22;11312;51.464;6.968;2023-02-01T04:39:43;5.40;99.90
22288;DHT22;11312;51.464;6.968;2023-02-01T04:42:09;5.30;99.90
22288;DHT22;11312;51.464;6.968;2023-02-01T04:44:35;5.40;99.90
22288;DHT22;11312;51.464;6.968;2023-02-01T04:47:02;5.50;99.90
22288;DHT22;11312;51.464;6.968;2023-02-01T04:49:27;5.60;99.90
22288;DHT22;11312;51.464;6.968;2023-02-01T04:51:53;5.60;99.90
22288;DHT22;11312;51.464;6.968;2023-02-01T04:54:19;5.60;99.90
22288;DHT22;11312;51.464;6.968;2023-02-01T04:56:44;5.60;99.90
22288;DHT22;11312;51.464;6.968;2023-02-01T04:59:11;5.60;99.90
22288;DHT22;11312;51.464;6.968;2023-02-01T05:01:37;5.60;99.90
22288;DHT22;11312;51.464;6.968;2023-02-01T05:04:03;5.60;99.90
22288;DHT22;11312;51.464;6.968;2023-02-01T05:06:29;5.60;99.90
22288;DHT22;11312;51.464;6.968;2023-02-01T05:08:54;5.50;99.90
22288;DHT22;11312;51.464;6.968;2023-02-01T05:11:20;5.50;99.90
22288;DHT22;11312;51.464;6.968;2023-02-01T05:14:04;5.40;99.90
22288;DHT22;11312;51.464;6.968;2023-02-01T05:16:29;5.40;99.90
22288;DHT22;11312;51.464;6.968;2023-02-01T05:18:55;5.40;99.90
22288;DHT22;11312;51.464;6.968;2023-02-01T05:21:20;5.40;99.90
22288;DHT22;11312;51.464;6.968;2023-02-01T05:23:46;5.20;99.90
22288;DHT22;11312;51.464;6.968;2023-02-01T05:26:31;5.20;99.90
22288;DHT22;11312;51.464;6.968;2023-02-01T05:28:57;5.20;99.90
22288;DHT22;11312;51.464;6.968;2023-02-01T05:31:23;5.20;99.90
22288;DHT22;11312;51.464;6.968;2023-02-01T05:33:49;5.10;99.90
22288;DHT22;11312;51.464;6.968;2023-02-01T05:36:15;5.30;99.90
22288;DHT22;11312;51.464;6.968;2023-02-01T05:38:40;5.20;99.90
22288;DHT22;11312;51.464;6.968;2023-02-01T05:41:06;5.20;99.90
22288;DHT22;11312;51.464;6.968;2023-02-01T05:43:32;5.20;99.90
22288;DHT22;11312;51.464;6.968;2023-02-01T05:45:58;5.20;99.90
22288;DHT22;11312;51.464;6.968;2023-02-01T05:48:24;5.10;99.90
22288;DHT22;11312;51.464;6.968;2023-02-01T05:50:49;5.00;99.90
22288;DHT22;11312;51.464;6.968;2023-02-01T05:53:15;5.00;99.90
22288;DHT22;11312;51.464;6.968;2023-02-01T05:55:41;5.00;99.90
22288;DHT22;11312;51.464;6.968;2023-02-01T05:58:07;5.40;99.90
22288;DHT22;11312;51.464;6.968;2023-02-01T06:00:34;5.00;99.90
22288;DHT22;11312;51.464;6.968;2023-02-01T06:03:00;5.00;99.90
22288;DHT22;11312;51.464;6.968;2023-02-01T06:05:26;5.00;99.90
22288;DHT22;11312;51.464;6.968;2023-02-01T06:07:52;5.10;99.90
22288;DHT22;11312;51.464;6.968;2023-02-01T06:10:17;5.20;99.90
22288;DHT22;11312;51.464;6.968;2023-02-01T06:12:43;5.30;99.90
22288;DHT22;11312;51.464;6.968;2023-02-01T06:15:11;5.40;99.90
22288;DHT22;11312;51.464;6.968;2023-02-01T06:17:36;5.50;99.90
22288;DHT22;11312;51.464;6.968;2023-02-01T06:20:04;5.50;99.90
22288;DHT22;11312;51.464;6.968;2023-02-01T06:22:32;5.60;99.90
22288;DHT22;11312;51.464;6.968;2023-02-01T06:24:57;5.60;99.90
22288;DHT22;11312;51.464;6.968;2023-02-01T06:27:24;5.60;99.90
22288;DHT22;11312;51.464;6.968;2023-02-01T06:29:50;5.60;99.90
22288;DHT22;11312;51.464;6.968;2023-02-01T06:32:15;5.60;99.90
22288;DHT22;11312;51.464;6.968;2023-02-01T06:34:42;5.60;99.90
22288;DHT22;11312;51.464;6.968;2023-02-01T06:37:08;5.60;99.90
22288;DHT22;11312;51.464;6.968;2023-02-01T06:39:34;5.70;99.90
22288;DHT22;11312;51.464;6.968;2023-02-01T06:41:59;5.70;99.90
22288;DHT22;11312;51.464;6.968;2023-02-01T06:44:25;5.70;99.90
22288;DHT22;11312;51.464;6.968;2023-02-01T06:46:50;5.70;99.90
22288;DHT22;11312;51.464;6.968;2023-02-01T06:49:16;5.70;99.90
22288;DHT22;11312;51.464;6.968;2023-02-01T06:51:42;5.70;99.90
22288;DHT22;11312;51.464;6.968;2023-02-01T06:54:07;5.70;99.90
22288;DHT22;11312;51.464;6.968;2023-02-01T06:56:33;5.80;99.90
22288;DHT22;11312;51.464;6.968;2023-02-01T06:58:59;5.80;99.90
22288;DHT22;11312;51.464;6.968;2023-02-01T07:01:25;5.80;99.90
22288;DHT22;11312;51.464;6.968;2023-02-01T07:03:51;5.90;99.90
22288;DHT22;11312;51.464;6.968;2023-02-01T07:06:17;6.00;99.90
22288;DHT22;11312;51.464;6.968;2023-02-01T07:08:43;5.90;99.90
22288;DHT22;11312;51.464;6.968;2023-02-01T07:11:10;5.90;99.90
22288;DHT22;11312;51.464;6.968;2023-02-01T07:13:37;5.90;99.90
22288;DHT22;11312;51.464;6.968;2023-02-01T07:16:05;5.90;99.90
22288;DHT22;11312;51.464;6.968;2023-02-01T07:18:31;5.90;99.90
22288;DHT22;11312;51.464;6.968;2023-02-01T07:20:57;5.90;99.90
22288;DHT22;11312;51.464;6.968;2023-02-01T07:23:25;5.90;99.90
22288;DHT22;11312;51.464;6.968;2023-02-01T07:25:59;6.00;99.90
22288;DHT22;11312;51.464;6.968;2023-02-01T07:28:25;6.00;99.90
22288;DHT22;11312;51.464;6.968;2023-02-01T07:30:51;6.00;99.90
22288;DHT22;11312;51.464;6.968;2023-02-01T07:33:21;5.90;99.90
22288;DHT22;11312;51.464;6.968;2023-02-01T07:35:48;6.00;99.90
22288;DHT22;11312;51.464;6.968;2023-02-01T07:38:14;6.00;99.90
22288;DHT22;11312;51.464;6.968;2023-02-01T07:40:41;6.00;99.90
22288;DHT22;11312;51.464;6.968;2023-02-01T07:43:06;6.00;99.90
22288;DHT22;11312;51.464;6.968;2023-02-01T07:45:36;6.10;99.90
22288;DHT22;11312;51.464;6.968;2023-02-01T07:48:02;6.10;99.90
22288;DHT22;11312;51.464;6.968;2023-02-01T07:50:28;6.10;99.90
22288;DHT22;11312;51.464;6.968;2023-02-01T07:52:53;6.00;99.90
22288;DHT22;11312;51.464;6.968;2023-02-01T07:55:20;6.00;99.90
22288;DHT22;11312;51.464;6.968;2023-02-01T07:57:46;6.10;99.90
22288;DHT22;11312;51.464;6.968;2023-02-01T08:00:12;6.20;99.90
22288;DHT22;11312;51.464;6.968;2023-02-01T08:03:00;6.10;99.90
22288;DHT22;11312;51.464;6.968;2023-02-01T08:05:26;6.20;99.90
22288;DHT22;11312;51.464;6.968;2023-02-01T08:07:52;6.20;99.90
22288;DHT22;11312;51.464;6.968;2023-02-01T08:10:19;6.20;99.90
22288;DHT22;11312;51.464;6.968;2023-02-01T08:12:45;6.10;99.90
22288;DHT22;11312;51.464;6.968;2023-02-01T08:15:17;6.20;99.90
22288;DHT22;11312;51.464;6.968;2023-02-01T08:17:48;6.20;99.90
22288;DHT22;11312;51.464;6.968;2023-02-01T08:20:14;6.20;99.90
22288;DHT22;11312;51.464;6.968;2023-02-01T08:22:39;6.20;99.90
22288;DHT22;11312;51.464;6.968;2023-02-01T08:25:06;6.20;99.90
22288;DHT22;11312;51.464;6.968;2023-02-01T08:27:35;6.20;99.90
22288;DHT22;11312;51.464;6.968;2023-02-01T08:30:01;6.20;99.90
22288;DHT22;11312;51.464;6.968;2023-02-01T08:32:27;6.20;99.90
22288;DHT22;11312;51.464;6.968;2023-02-01T08:34:53;6.30;99.90
22288;DHT22;11312;51.464;6.968;2023-02-01T08:37:19;5.90;99.90
22288;DHT22;11312;51.464;6.968;2023-02-01T08:39:44;6.30;99.90
22288;DHT22;11312;51.464;6.968;2023-02-01T08:42:11;6.40;99.90
22288;DHT22;11312;51.464;6.968;2023-02-01T08:44:55;6.40;99.90
22288;DHT22;11312;51.464;6.968;2023-02-01T08:47:21;6.40;99.90
22288;DHT22;11312;51.464;6.968;2023-02-01T08:49:47;6.40;99.90
22288;DHT22;11312;51.464;6.968;2023-02-01T08:52:12;6.60;99.90
22288;DHT22;11312;51.464;6.968;2023-02-01T08:54:38;6.50;99.90
22288;DHT22;11312;51.464;6.968;2023-02-01T08:57:05;6.60;99.90
22288;DHT22;11312;51.464;6.968;2023-02-01T08:59:31;6.60;99.90
22288;DHT22;11312;51.464;6.968;2023-02-01T09:01:56;6.50;99.90
22288;DHT22;11312;51.464;6.968;2023-02-01T09:04:22;6.50;99.90
22288;DHT22;11312;51.464;6.968;2023-02-01T09:06:47;6.60;99.90
22288;DHT22;11312;51.464;6.968;2023-02-01T09:09:13;6.50;99.90
22288;DHT22;11312;51.464;6.968;2023-02-01T09:11:38;6.50;99.90
22288;DHT22;11312;51.464;6.968;2023-02-01T09:14:04;6.40;99.90
22288;DHT22;11312;51.464;6.968;2023-02-01T09:16:30;6.30;99.90
22288;DHT22;11312;51.464;6.968;2023-02-01T09:18:55;6.40;99.90
22288;DHT22;11312;51.464;6.968;2023-02-01T09:21:21;6.50;99.90
22288;DHT22;11312;51.464;6.968;2023-02-01T09:23:46;6.50;99.90
22288;DHT22;11312;51.464;6.968;2023-02-01T09:26:14;6.60;99.90
22288;DHT22;11312;51.464;6.968;2023-02-01T09:28:39;6.70;99.90
22288;DHT22;11312;51.464;6.968;2023-02-01T09:31:05;6.60;99.90
22288;DHT22;11312;51.464;6.968;2023-02-01T09:33:31;6.60;99.90
22288;DHT22;11312;51.464;6.968;2023-02-01T09:35:58;6.70;99.90
22288;DHT22;11312;51.464;6.968;2023-02-01T09:38:24;6.60;99.90
22288;DHT22;11312;51.464;6.968;2023-02-01T09:40:51;6.60;99.90
22288;DHT22;11312;51.464;6.968;2023-02-01T09:43:34;6.80;99.90
22288;DHT22;11312;51.464;6.968;2023-02-01T09:46:29;6.80;99.90
22288;DHT22;11312;51.464;6.968;2023-02-01T09:49:00;7.10;99.90
22288;DHT22;11312;51.464;6.968;2023-02-01T09:51:40;7.10;99.90
22288;DHT22;11312;51.464;6.968;2023-02-01T09:57:06;7.10;99.90
22288;DHT22;11312;51.464;6.968;2023-02-01T09:59:34;7.30;99.90
22288;DHT22;11312;51.464;6.968;2023-02-01T10:02:03;7.20;99.90
22288;DHT22;11312;51.464;6.968;2023-02-01T10:04:30;7.30;1.00
22288;DHT22;11312;51.464;6.968;2023-02-01T10:07:13;7.30;99.90
22288;DHT22;11312;51.464;6.968;2023-02-01T10:09:58;7.20;99.90
22288;DHT22;11312;51.464;6.968;2023-02-01T10:23:44;7.00;99.90
22288;DHT22;11312;51.464;6.968;2023-02-01T10:26:23;7.00;99.90
22288;DHT22;11312;51.464;6.968;2023-02-01T10:28:54;7.10;20.40
22288;DHT22;11312;51.464;6.968;2023-02-01T10:31:26;7.10;24.20
22288;DHT22;11312;51.464;6.968;2023-02-01T10:33:59;7.20;1.00
22288;DHT22;11312;51.464;6.968;2023-02-01T10:36:35;7.20;1.00
22288;DHT22;11312;51.464;6.968;2023-02-01T10:39:03;7.00;1.00
22288;DHT22;11312;51.464;6.968;2023-02-01T10:41:39;7.20;1.00
22288;DHT22;11312;51.464;6.968;2023-02-01T10:44:14;7.20;1.50
22288;DHT22;11312;51.464;6.968;2023-02-01T10:46:40;7.10;28.00
22288;DHT22;11312;51.464;6.968;2023-02-01T10:49:37;7.00;1.00
22288;DHT22;11312;51.464;6.968;2023-02-01T10:54:41;7.00;1.00
22288;DHT22;11312;51.464;6.968;2023-02-01T10:57:22;7.10;1.00
22288;DHT22;11312;51.464;6.968;2023-02-01T10:59:50;7.20;1.00
22288;DHT22;11312;51.464;6.968;2023-02-01T11:02:31;7.30;1.00
22288;DHT22;11312;51.464;6.968;2023-02-01T11:05:09;7.20;1.00
22288;DHT22;11312;51.464;6.968;2023-02-01T11:07:38;7.10;1.00
22288;DHT22;11312;51.464;6.968;2023-02-01T11:10:05;7.20;1.00
22288;DHT22;11312;51.464;6.968;2023-02-01T11:12:34;7.00;1.00
22288;DHT22;11312;51.464;6.968;2023-02-01T11:15:24;7.30;1.00
22288;DHT22;11312;51.464;6.968;2023-02-01T11:17:50;7.50;1.00
22288;DHT22;11312;51.464;6.968;2023-02-01T11:22:58;7.50;99.90
22288;DHT22;11312;51.464;6.968;2023-02-01T11:25:24;7.50;1.00
22288;DHT22;11312;51.464;6.968;2023-02-01T11:27:51;7.50;1.00
22288;DHT22;11312;51.464;6.968;2023-02-01T11:30:34;7.30;99.90
22288;DHT22;11312;51.464;6.968;2023-02-01T11:33:03;7.90;1.00
22288;DHT22;11312;51.464;6.968;2023-02-01T11:35:30;7.30;1.00
22288;DHT22;11312;51.464;6.968;2023-02-01T11:38:00;7.30;1.00
22288;DHT22;11312;51.464;6.968;2023-02-01T11:40:35;7.20;1.00
22288;DHT22;11312;51.464;6.968;2023-02-01T11:43:18;7.80;99.90
22288;DHT22;11312;51.464;6.968;2023-02-01T11:45:59;7.50;1.00
22288;DHT22;11312;51.464;6.968;2023-02-01T11:48:28;7.30;1.00
22288;DHT22;11312;51.464;6.968;2023-02-01T11:59:18;6.90;1.00
22288;DHT22;11312;51.464;6.968;2023-02-01T12:04:48;6.70;99.90
22288;DHT22;11312;51.464;6.968;2023-02-01T12:24:39;6.80;99.90
22288;DHT22;11312;51.464;6.968;2023-02-01T12:27:24;6.90;23.30
22288;DHT22;11312;51.464;6.968;2023-02-01T12:32:52;6.90;9.40
22288;DHT22;11312;51.464;6.968;2023-02-01T12:38:06;7.00;1.00
22288;DHT22;11312;51.464;6.968;2023-02-01T12:40:50;7.00;19.00
22288;DHT22;11312;51.464;6.968;2023-02-01T12:43:25;7.00;1.00
22288;DHT22;11312;51.464;6.968;2023-02-01T12:45:58;7.10;93.30
22288;DHT22;11312;51.464;6.968;2023-02-01T12:48:37;7.10;92.30
22288;DHT22;11312;51.464;6.968;2023-02-01T12:51:16;7.20;99.90
22288;DHT22;11312;51.464;6.968;2023-02-01T12:54:10;7.20;99.90
22288;DHT22;11312;51.464;6.968;2023-02-01T12:56:59;7.20;99.90
22288;DHT22;11312;51.464;6.968;2023-02-01T12:59:44;7.30;24.90
22288;DHT22;11312;51.464;6.968;2023-02-01T13:02:22;7.30;1.00
22288;DHT22;11312;51.464;6.968;2023-02-01T13:04:57;7.30;1.00
22288;DHT22;11312;51.464;6.968;2023-02-01T13:07:41;7.30;1.00
22288;DHT22;11312;51.464;6.968;2023-02-01T13:10:17;7.20;1.00
22288;DHT22;11312;51.464;6.968;2023-02-01T13:12:54;7.20;1.00
22288;DHT22;11312;51.464;6.968;2023-02-01T13:17:52;7.10;1.00
22288;DHT22;11312;51.464;6.968;2023-02-01T13:20:32;7.20;1.00
22288;DHT22;11312;51.464;6.968;2023-02-01T13:23:11;7.20;1.00
22288;DHT22;11312;51.464;6.968;2023-02-01T13:25:49;7.20;1.00
22288;DHT22;11312;51.464;6.968;2023-02-01T13:28:41;7.20;1.00
22288;DHT22;11312;51.464;6.968;2023-02-01T13:36:52;7.40;1.00
22288;DHT22;11312;51.464;6.968;2023-02-01T13:42:22;7.40;99.90
22288;DHT22;11312;51.464;6.968;2023-02-01T13:47:33;7.60;99.90
22288;DHT22;11312;51.464;6.968;2023-02-01T13:50:09;7.50;99.90
22288;DHT22;11312;51.464;6.968;2023-02-01T13:52:40;7.60;99.90
22288;DHT22;11312;51.464;6.968;2023-02-01T13:55:23;7.60;1.00
22288;DHT22;11312;51.464;6.968;2023-02-01T13:57:58;7.70;1.00
22288;DHT22;11312;51.464;6.968;2023-02-01T14:00:28;7.60;1.00
22288;DHT22;11312;51.464;6.968;2023-02-01T14:10:56;7.60;1.00
22288;DHT22;11312;51.464;6.968;2023-02-01T14:21:33;7.60;99.90
22288;DHT22;11312;51.464;6.968;2023-02-01T14:24:20;7.60;99.90
22288;DHT22;11312;51.464;6.968;2023-02-01T14:26:49;7.50;99.90
22288;DHT22;11312;51.464;6.968;2023-02-01T14:34:39;7.50;99.90
22288;DHT22;11312;51.464;6.968;2023-02-01T14:37:24;7.60;99.90
22288;DHT22;11312;51.464;6.968;2023-02-01T14:39:56;7.60;99.90
22288;DHT22;11312;51.464;6.968;2023-02-01T14:55:43;7.80;99.90
22288;DHT22;11312;51.464;6.968;2023-02-01T15:00:58;7.70;99.90
22288;DHT22;11312;51.464;6.968;2023-02-01T15:05:59;7.80;99.90
22288;DHT22;11312;51.464;6.968;2023-02-01T15:08:34;7.80;99.90
22288;DHT22;11312;51.464;6.968;2023-02-01T15:11:07;7.80;99.90
22288;DHT22;11312;51.464;6.968;2023-02-01T15:13:36;7.80;99.90
22288;DHT22;11312;51.464;6.968;2023-02-01T15:16:12;7.70;99.90
22288;DHT22;11312;51.464;6.968;2023-02-01T15:18:39;7.80;99.90
22288;DHT22;11312;51.464;6.968;2023-02-01T15:21:06;7.80;99.90
22288;DHT22;11312;51.464;6.968;2023-02-01T15:23:33;7.80;99.90
22288;DHT22;11312;51.464;6.968;2023-02-01T15:25:59;7.80;99.90
22288;DHT22;11312;51.464;6.968;2023-02-01T15:28:25;7.80;99.90
22288;DHT22;11312;51.464;6.968;2023-02-01T15:31:03;7.80;99.90
22288;DHT22;11312;51.464;6.968;2023-02-01T15:33:30;7.50;99.90
22288;DHT22;11312;51.464;6.968;2023-02-01T15:36:19;7.90;99.90
22288;DHT22;11312;51.464;6.968;2023-02-01T15:38:47;7.90;99.90
22288;DHT22;11312;51.464;6.968;2023-02-01T15:43:46;7.90;99.90
22288;DHT22;11312;51.464;6.968;2023-02-01T15:46:18;7.80;99.90
22288;DHT22;11312;51.464;6.968;2023-02-01T15:48:52;7.80;99.90
22288;DHT22;11312;51.464;6.968;2023-02-01T15:51:20;7.80;99.90
22288;DHT22;11312;51.464;6.968;2023-02-01T15:53:50;7.80;99.90
22288;DHT22;11312;51.464;6.968;2023-02-01T15:56:22;7.80;99.90
22288;DHT22;11312;51.464;6.968;2023-02-01T15:58:52;7.80;99.90
22288;DHT22;11312;51.464;6.968;2023-02-01T16:01:18;7.80;99.90
22288;DHT22;11312;51.464;6.968;2023-02-01T16:03:46;7.80;99.90
22288;DHT22;11312;51.464;6.968;2023-02-01T16:08:54;7.80;99.90
22288;DHT22;11312;51.464;6.968;2023-02-01T16:11:31;7.90;99.90
22288;DHT22;11312;51.464;6.968;2023-02-01T16:13:58;7.80;99.90
22288;DHT22;11312;51.464;6.968;2023-02-01T16:16:25;7.80;99.90
22288;DHT22;11312;51.464;6.968;2023-02-01T16:18:50;7.80;99.90
22288;DHT22;11312;51.464;6.968;2023-02-01T16:21:16;7.80;99.90
22288;DHT22;11312;51.464;6.968;2023-02-01T16:23:42;7.80;99.90
22288;DHT22;11312;51.464;6.968;2023-02-01T16:26:07;7.80;99.90
22288;DHT22;11312;51.464;6.968;2023-02-01T16:28:33;7.80;99.90
22288;DHT22;11312;51.464;6.968;2023-02-01T16:30:59;7.60;99.90
22288;DHT22;11312;51.464;6.968;2023-02-01T16:33:26;7.30;99.90
22288;DHT22;11312;51.464;6.968;2023-02-01T16:35:52;7.20;99.90
22288;DHT22;11312;51.464;6.968;2023-02-01T16:38:21;7.20;99.90
22288;DHT22;11312;51.464;6.968;2023-02-01T16:40:48;7.00;99.90
22288;DHT22;11312;51.464;6.968;2023-02-01T16:43:20;7.00;99.90
22288;DHT22;11312;51.464;6.968;2023-02-01T16:45:47;7.00;99.90
22288;DHT22;11312;51.464;6.968;2023-02-01T16:48:29;7.10;99.90
22288;DHT22;11312;51.464;6.968;2023-02-01T16:50:58;7.10;99.90
22288;DHT22;11312;51.464;6.968;2023-02-01T16:53:26;7.10;99.90
22288;DHT22;11312;51.464;6.968;2023-02-01T16:55:55;7.20;99.90
22288;DHT22;11312;51.464;6.968;2023-02-01T16:58:23;7.20;99.90
22288;DHT22;11312;51.464;6.968;2023-02-01T17:00:49;7.20;99.90
22288;DHT22;11312;51.464;6.968;2023-02-01T17:03:16;7.10;99.90
22288;DHT22;11312;51.464;6.968;2023-02-01T17:05:48;7.20;72.20
22288;DHT22;11312;51.464;6.968;2023-02-01T17:08:18;7.10;63.90
22288;DHT22;11312;51.464;6.968;2023-02-01T17:10:45;7.10;35.30
22288;DHT22;11312;51.464;6.968;2023-02-01T17:13:13;7.20;1.00
22288;DHT22;11312;51.464;6.968;2023-02-01T17:15:39;7.30;1.00
22288;DHT22;11312;51.464;6.968;2023-02-01T17:18:07;7.20;1.00
22288;DHT22;11312;51.464;6.968;2023-02-01T17:20:33;7.30;1.00
22288;DHT22;11312;51.464;6.968;2023-02-01T17:22:59;7.20;1.00
22288;DHT22;11312;51.464;6.968;2023-02-01T17:25:26;7.30;1.00
22288;DHT22;11312;51.464;6.968;2023-02-01T17:27:53;7.20;1.00
22288;DHT22;11312;51.464;6.968;2023-02-01T17:30:18;7.30;1.00
22288;DHT22;11312;51.464;6.968;2023-02-01T17:32:44;7.40;1.00
22288;DHT22;11312;51.464;6.968;2023-02-01T17:35:19;7.30;1.00
22288;DHT22;11312;51.464;6.968;2023-02-01T17:37:45;7.40;1.00
22288;DHT22;11312;51.464;6.968;2023-02-01T17:40:13;7.40;1.00
22288;DHT22;11312;51.464;6.968;2023-02-01T17:42:40;7.40;1.00
22288;DHT22;11312;51.464;6.968;2023-02-01T17:45:39;7.40;1.00
22288;DHT22;11312;51.464;6.968;2023-02-01T17:48:07;7.40;1.00
22288;DHT22;11312;51.464;6.968;2023-02-01T17:50:35;7.40;1.00
22288;DHT22;11312;51.464;6.968;2023-02-01T17:53:02;7.40;1.00
22288;DHT22;11312;51.464;6.968;2023-02-01T17:55:33;7.30;1.00
22288;DHT22;11312;51.464;6.968;2023-02-01T17:57:59;7.40;1.00
22288;DHT22;11312;51.464;6.968;2023-02-01T18:00:25;7.50;1.00
22288;DHT22;11312;51.464;6.968;2023-02-01T18:02:51;7.50;1.00
22288;DHT22;11312;51.464;6.968;2023-02-01T18:05:21;7.50;1.00
22288;DHT22;11312;51.464;6.968;2023-02-01T18:07:48;7.40;1.00
22288;DHT22;11312;51.464;6.968;2023-02-01T18:10:13;7.50;1.00
22288;DHT22;11312;51.464;6.968;2023-02-01T18:12:39;7.50;1.00
22288;DHT22;11312;51.464;6.968;2023-02-01T18:15:21;7.50;1.00
22288;DHT22;11312;51.464;6.968;2023-02-01T18:17:47;7.50;1.00
22288;DHT22;11312;51.464;6.968;2023-02-01T18:20:18;7.40;1.00